sensor_id;sensor_type;location;lat;lon;timestamp;temperature;humidity
21678;DHT22;11000;50.360;7.582;2023-03-29T00:01:54;6.80;99.90
21678;DHT22;11000;50.360;7.582;2023-03-29T00:04:15;6.80;99.90
21678;DHT22;11000;50.360;7.582;2023-03-29T00:06:38;6.80;99.90
21678;DHT22;11000;50.360;7.582;2023-03-29T00:09:01;6.80;99.90
21678;DHT22;11000;50.360;7.582;2023-03-29T00:11:25;6.80;99.90
21678;DHT22;11000;50.360;7.582;2023-03-29T00:13:47;6.80;99.90
21678;DHT22;11000;50.360;7.582;2023-03-29T00:16:08;6.90;99.90
21678;DHT22;11000;50.360;7.582;2023-03-29T00:18:28;6.90;99.90
21678;DHT22;11000;50.360;7.582;2023-03-29T00:20:55;6.90;99.90
21678;DHT22;11000;50.360;7.582;2023-03-29T00:23:17;6.90;99.90
21678;DHT22;11000;50.360;7.582;2023-03-29T00:25:43;6.90;99.90
21678;DHT22;11000;50.360;7.582;2023-03-29T00:28:04;6.90;99.90
21678;DHT22;11000;50.360;7.582;2023-03-29T00:30:24;6.80;99.90
21678;DHT22;11000;50.360;7.582;2023-03-29T00:32:45;6.80;99.90
21678;DHT22;11000;50.360;7.582;2023-03-29T00:35:06;6.80;99.90
21678;DHT22;11000;50.360;7.582;2023-03-29T00:37:27;6.80;99.90
21678;DHT22;11000;50.360;7.582;2023-03-29T00:39:49;6.80;99.90
21678;DHT22;11000;50.360;7.582;2023-03-29T00:42:14;6.80;99.90
21678;DHT22;11000;50.360;7.582;2023-03-29T00:47:19;6.80;99.90
21678;DHT22;11000;50.360;7.582;2023-03-29T00:49:40;6.80;99.90
21678;DHT22;11000;50.360;7.582;2023-03-29T00:52:02;6.80;99.90
21678;DHT22;11000;50.360;7.582;2023-03-29T00:54:22;6.80;99.90
21678;DHT22;11000;50.360;7.582;2023-03-29T00:56:46;6.80;99.90
21678;DHT22;11000;50.360;7.582;2023-03-29T00:59:14;6.80;99.90
21678;DHT22;11000;50.360;7.582;2023-03-29T01:04:43;6.70;99.90
21678;DHT22;11000;50.360;7.582;2023-03-29T01:07:09;6.70;99.90
21678;DHT22;11000;50.360;7.582;2023-03-29T01:09:35;6.70;99.90
21678;DHT22;11000;50.360;7.582;2023-03-29T01:12:00;6.70;99.90
21678;DHT22;11000;50.360;7.582;2023-03-29T01:16:48;6.70;99.90
21678;DHT22;11000;50.360;7.582;2023-03-29T01:19:12;6.70;99.90
21678;DHT22;11000;50.360;7.582;2023-03-29T01:21:49;6.70;99.90
21678;DHT22;11000;50.360;7.582;2023-03-29T01:27:16;6.70;99.90
21678;DHT22;11000;50.360;7.582;2023-03-29T01:29:46;6.70;99.90
21678;DHT22;11000;50.360;7.582;2023-03-29T01:32:15;6.70;99.90
21678;DHT22;11000;50.360;7.582;2023-03-29T01:34:44;6.60;99.90
21678;DHT22;11000;50.360;7.582;2023-03-29T01:39:45;6.60;99.90
21678;DHT22;11000;50.360;7.582;2023-03-29T01:42:13;6.60;99.90
21678;DHT22;11000;50.360;7.582;2023-03-29T01:44:46;6.60;99.90
21678;DHT22;11000;50.360;7.582;2023-03-29T01:47:37;6.60;99.90
21678;DHT22;11000;50.360;7.582;2023-03-29T01:50:14;6.70;99.90
21678;DHT22;11000;50.360;7.582;2023-03-29T01:52:49;6.70;99.90
21678;DHT22;11000;50.360;7.582;2023-03-29T01:55:17;6.70;99.90
21678;DHT22;11000;50.360;7.582;2023-03-29T01:57:41;6.70;99.90
21678;DHT22;11000;50.360;7.582;2023-03-29T02:00:04;6.70;99.90
21678;DHT22;11000;50.360;7.582;2023-03-29T02:02:29;6.70;99.90
21678;DHT22;11000;50.360;7.582;2023-03-29T02:04:52;6.70;99.90
21678;DHT22;11000;50.360;7.582;2023-03-29T02:07:15;6.80;99.90
21678;DHT22;11000;50.360;7.582;2023-03-29T02:09:37;6.80;99.90
21678;DHT22;11000;50.360;7.582;2023-03-29T02:12:00;6.80;99.90
21678;DHT22;11000;50.360;7.582;2023-03-29T02:14:21;6.80;99.90
21678;DHT22;11000;50.360;7.582;2023-03-29T02:16:43;6.80;99.90
21678;DHT22;11000;50.360;7.582;2023-03-29T02:19:07;6.80;99.90
21678;DHT22;11000;50.360;7.582;2023-03-29T02:21:46;6.80;99.90
21678;DHT22;11000;50.360;7.582;2023-03-29T02:24:12;6.80;99.90
21678;DHT22;11000;50.360;7.582;2023-03-29T02:26:34;6.90;99.90
21678;DHT22;11000;50.360;7.582;2023-03-29T02:28:55;6.80;99.90
21678;DHT22;11000;50.360;7.582;2023-03-29T02:31:31;6.80;99.90
21678;DHT22;11000;50.360;7.582;2023-03-29T02:34:05;6.80;99.90
21678;DHT22;11000;50.360;7.582;2023-03-29T02:36:46;6.80;99.90
21678;DHT22;11000;50.360;7.582;2023-03-29T02:39:11;6.80;99.90
21678;DHT22;11000;50.360;7.582;2023-03-29T02:41:38;6.80;99.90
21678;DHT22;11000;50.360;7.582;2023-03-29T02:44:00;6.80;99.90
21678;DHT22;11000;50.360;7.582;2023-03-29T02:46:21;6.80;99.90
21678;DHT22;11000;50.360;7.582;2023-03-29T02:48:43;6.80;99.90
21678;DHT22;11000;50.360;7.582;2023-03-29T02:51:17;6.80;99.90
21678;DHT22;11000;50.360;7.582;2023-03-29T02:53:42;6.90;99.90
21678;DHT22;11000;50.360;7.582;2023-03-29T02:56:04;6.90;99.90
21678;DHT22;11000;50.360;7.582;2023-03-29T02:58:25;6.90;99.90
21678;DHT22;11000;50.360;7.582;2023-03-29T03:00:47;6.90;99.90
21678;DHT22;11000;50.360;7.582;2023-03-29T03:03:08;6.90;99.90
21678;DHT22;11000;50.360;7.582;2023-03-29T03:05:29;6.90;99.90
21678;DHT22;11000;50.360;7.582;2023-03-29T03:07:50;6.90;99.90
21678;DHT22;11000;50.360;7.582;2023-03-29T03:10:11;6.90;99.90
21678;DHT22;11000;50.360;7.582;2023-03-29T03:12:31;6.90;99.90
21678;DHT22;11000;50.360;7.582;2023-03-29T03:14:52;6.90;99.90
21678;DHT22;11000;50.360;7.582;2023-03-29T03:17:12;7.00;99.90
21678;DHT22;11000;50.360;7.582;2023-03-29T03:19:33;7.00;99.90
21678;DHT22;11000;50.360;7.582;2023-03-29T03:21:53;6.90;99.90
21678;DHT22;11000;50.360;7.582;2023-03-29T03:24:15;6.90;99.90
21678;DHT22;11000;50.360;7.582;2023-03-29T03:26:37;6.90;99.90
21678;DHT22;11000;50.360;7.582;2023-03-29T03:28:58;6.90;99.90
21678;DHT22;11000;50.360;7.582;2023-03-29T03:31:20;6.90;99.90
21678;DHT22;11000;50.360;7.582;2023-03-29T03:33:40;6.90;99.90
21678;DHT22;11000;50.360;7.582;2023-03-29T03:36:01;6.90;99.90
21678;DHT22;11000;50.360;7.582;2023-03-29T03:38:25;6.90;99.90
21678;DHT22;11000;50.360;7.582;2023-03-29T03:40:52;6.90;99.90
21678;DHT22;11000;50.360;7.582;2023-03-29T03:43:13;6.90;99.90
21678;DHT22;11000;50.360;7.582;2023-03-29T03:45:33;6.90;99.90
21678;DHT22;11000;50.360;7.582;2023-03-29T03:47:54;6.90;99.90
21678;DHT22;11000;50.360;7.582;2023-03-29T03:50:15;6.90;99.90
21678;DHT22;11000;50.360;7.582;2023-03-29T03:52:36;6.90;99.90
21678;DHT22;11000;50.360;7.582;2023-03-29T03:54:57;6.90;99.90
21678;DHT22;11000;50.360;7.582;2023-03-29T03:57:17;6.90;99.90
21678;DHT22;11000;50.360;7.582;2023-03-29T03:59:38;6.90;99.90
21678;DHT22;11000;50.360;7.582;2023-03-29T04:01:59;6.90;99.90
21678;DHT22;11000;50.360;7.582;2023-03-29T04:04:19;6.90;99.90
21678;DHT22;11000;50.360;7.582;2023-03-29T04:06:40;6.90;99.90
21678;DHT22;11000;50.360;7.582;2023-03-29T04:09:01;7.00;99.90
21678;DHT22;11000;50.360;7.582;2023-03-29T04:11:23;6.90;99.90
21678;DHT22;11000;50.360;7.582;2023-03-29T04:13:43;6.90;99.90
21678;DHT22;11000;50.360;7.582;2023-03-29T04:16:05;7.00;99.90
21678;DHT22;11000;50.360;7.582;2023-03-29T04:18:26;6.90;99.90
21678;DHT22;11000;50.360;7.582;2023-03-29T04:20:50;6.90;99.90
21678;DHT22;11000;50.360;7.582;2023-03-29T04:23:10;7.00;99.90
21678;DHT22;11000;50.360;7.582;2023-03-29T04:25:31;7.00;99.90
21678;DHT22;11000;50.360;7.582;2023-03-29T04:27:52;6.90;99.90
21678;DHT22;11000;50.360;7.582;2023-03-29T04:30:13;7.00;99.90
21678;DHT22;11000;50.360;7.582;2023-03-29T04:32:34;7.00;99.90
21678;DHT22;11000;50.360;7.582;2023-03-29T04:34:55;7.00;99.90
21678;DHT22;11000;50.360;7.582;2023-03-29T04:37:15;7.00;99.90
21678;DHT22;11000;50.360;7.582;2023-03-29T04:39:41;7.00;99.90
21678;DHT22;11000;50.360;7.582;2023-03-29T04:42:04;7.00;99.90
21678;DHT22;11000;50.360;7.582;2023-03-29T04:44:25;7.00;99.90
21678;DHT22;11000;50.360;7.582;2023-03-29T04:46:46;7.10;99.90
21678;DHT22;11000;50.360;7.582;2023-03-29T04:49:06;7.10;99.90
21678;DHT22;11000;50.360;7.582;2023-03-29T04:51:27;7.10;99.90
21678;DHT22;11000;50.360;7.582;2023-03-29T04:53:48;7.10;99.90
21678;DHT22;11000;50.360;7.582;2023-03-29T04:56:09;7.10;99.90
21678;DHT22;11000;50.360;7.582;2023-03-29T04:58:30;7.00;99.90
21678;DHT22;11000;50.360;7.582;2023-03-29T05:00:50;7.10;99.90
21678;DHT22;11000;50.360;7.582;2023-03-29T05:03:11;7.10;99.90
21678;DHT22;11000;50.360;7.582;2023-03-29T05:05:33;7.10;99.90
21678;DHT22;11000;50.360;7.582;2023-03-29T05:07:54;7.10;99.90
21678;DHT22;11000;50.360;7.582;2023-03-29T05:10:15;7.10;99.90
21678;DHT22;11000;50.360;7.582;2023-03-29T05:12:36;7.10;99.90
21678;DHT22;11000;50.360;7.582;2023-03-29T05:14:57;7.20;99.90
21678;DHT22;11000;50.360;7.582;2023-03-29T05:17:17;7.10;99.90
21678;DHT22;11000;50.360;7.582;2023-03-29T05:19:38;7.10;99.90
21678;DHT22;11000;50.360;7.582;2023-03-29T05:21:58;7.20;99.90
21678;DHT22;11000;50.360;7.582;2023-03-29T05:24:19;7.20;99.90
21678;DHT22;11000;50.360;7.582;2023-03-29T05:26:40;7.10;99.90
21678;DHT22;11000;50.360;7.582;2023-03-29T05:29:01;7.10;99.90
21678;DHT22;11000;50.360;7.582;2023-03-29T05:31:22;7.10;99.90
21678;DHT22;11000;50.360;7.582;2023-03-29T05:33:43;7.20;99.90
21678;DHT22;11000;50.360;7.582;2023-03-29T05:36:06;7.20;99.90
21678;DHT22;11000;50.360;7.582;2023-03-29T05:38:27;7.20;99.90
21678;DHT22;11000;50.360;7.582;2023-03-29T05:40:49;7.20;99.90
21678;DHT22;11000;50.360;7.582;2023-03-29T05:43:10;7.20;99.90
21678;DHT22;11000;50.360;7.582;2023-03-29T05:45:31;7.20;99.90
21678;DHT22;11000;50.360;7.582;2023-03-29T05:47:53;7.20;99.90
21678;DHT22;11000;50.360;7.582;2023-03-29T05:50:13;7.20;99.90
21678;DHT22;11000;50.360;7.582;2023-03-29T05:52:35;7.30;99.90
21678;DHT22;11000;50.360;7.582;2023-03-29T05:54:55;7.30;99.90
21678;DHT22;11000;50.360;7.582;2023-03-29T05:57:16;7.30;99.90
21678;DHT22;11000;50.360;7.582;2023-03-29T05:59:37;7.30;99.90
21678;DHT22;11000;50.360;7.582;2023-03-29T06:01:57;7.30;99.90
21678;DHT22;11000;50.360;7.582;2023-03-29T06:04:19;7.40;99.90
21678;DHT22;11000;50.360;7.582;2023-03-29T06:06:40;7.40;99.90
21678;DHT22;11000;50.360;7.582;2023-03-29T06:09:01;7.40;99.90
21678;DHT22;11000;50.360;7.582;2023-03-29T06:11:22;7.40;99.90
21678;DHT22;11000;50.360;7.582;2023-03-29T06:13:43;7.50;99.90
21678;DHT22;11000;50.360;7.582;2023-03-29T06:16:04;7.40;99.90
21678;DHT22;11000;50.360;7.582;2023-03-29T06:18:25;7.40;99.90
21678;DHT22;11000;50.360;7.582;2023-03-29T06:20:50;7.40;99.90
21678;DHT22;11000;50.360;7.582;2023-03-29T06:23:11;7.40;99.90
21678;DHT22;11000;50.360;7.582;2023-03-29T06:25:32;7.50;99.90
21678;DHT22;11000;50.360;7.582;2023-03-29T06:27:53;7.40;99.90
21678;DHT22;11000;50.360;7.582;2023-03-29T06:30:14;7.40;99.90
21678;DHT22;11000;50.360;7.582;2023-03-29T06:32:35;7.30;99.90
21678;DHT22;11000;50.360;7.582;2023-03-29T06:34:55;7.30;99.90
21678;DHT22;11000;50.360;7.582;2023-03-29T06:37:16;7.30;99.90
21678;DHT22;11000;50.360;7.582;2023-03-29T06:39:37;7.40;99.90
21678;DHT22;11000;50.360;7.582;2023-03-29T06:41:57;7.30;99.90
21678;DHT22;11000;50.360;7.582;2023-03-29T06:44:18;7.50;99.90
21678;DHT22;11000;50.360;7.582;2023-03-29T06:46:39;7.50;99.90
21678;DHT22;11000;50.360;7.582;2023-03-29T06:49:00;7.60;99.90
21678;DHT22;11000;50.360;7.582;2023-03-29T06:51:20;7.50;99.90
21678;DHT22;11000;50.360;7.582;2023-03-29T06:53:42;7.50;99.90
21678;DHT22;11000;50.360;7.582;2023-03-29T06:56:03;7.60;99.90
21678;DHT22;11000;50.360;7.582;2023-03-29T06:58:28;7.60;99.90
21678;DHT22;11000;50.360;7.582;2023-03-29T07:00:48;7.70;99.90
21678;DHT22;11000;50.360;7.582;2023-03-29T07:03:09;7.80;99.90
21678;DHT22;11000;50.360;7.582;2023-03-29T07:05:32;7.90;99.90
21678;DHT22;11000;50.360;7.582;2023-03-29T07:07:55;7.80;99.90
21678;DHT22;11000;50.360;7.582;2023-03-29T07:10:16;7.80;99.90
21678;DHT22;11000;50.360;7.582;2023-03-29T07:12:37;7.80;99.90
21678;DHT22;11000;50.360;7.582;2023-03-29T07:14:57;7.80;99.90
21678;DHT22;11000;50.360;7.582;2023-03-29T07:17:18;7.80;99.90
21678;DHT22;11000;50.360;7.582;2023-03-29T07:19:38;7.80;99.90
21678;DHT22;11000;50.360;7.582;2023-03-29T07:21:59;7.80;99.90
21678;DHT22;11000;50.360;7.582;2023-03-29T07:24:20;7.90;99.90
21678;DHT22;11000;50.360;7.582;2023-03-29T07:26:41;8.00;99.90
21678;DHT22;11000;50.360;7.582;2023-03-29T07:29:02;8.10;99.90
21678;DHT22;11000;50.360;7.582;2023-03-29T07:31:23;8.20;99.90
21678;DHT22;11000;50.360;7.582;2023-03-29T07:33:43;8.20;99.90
21678;DHT22;11000;50.360;7.582;2023-03-29T07:36:04;8.40;99.90
21678;DHT22;11000;50.360;7.582;2023-03-29T07:38:25;8.50;99.90
21678;DHT22;11000;50.360;7.582;2023-03-29T07:40:46;8.60;99.90
21678;DHT22;11000;50.360;7.582;2023-03-29T07:43:06;8.60;99.90
21678;DHT22;11000;50.360;7.582;2023-03-29T07:45:30;8.70;99.90
21678;DHT22;11000;50.360;7.582;2023-03-29T07:47:56;8.70;99.90
21678;DHT22;11000;50.360;7.582;2023-03-29T07:50:17;8.80;99.90
21678;DHT22;11000;50.360;7.582;2023-03-29T07:52:38;8.80;99.90
21678;DHT22;11000;50.360;7.582;2023-03-29T07:54:59;8.90;99.90
21678;DHT22;11000;50.360;7.582;2023-03-29T07:57:19;8.80;99.90
21678;DHT22;11000;50.360;7.582;2023-03-29T07:59:40;8.90;99.90
21678;DHT22;11000;50.360;7.582;2023-03-29T08:02:00;8.90;99.90
21678;DHT22;11000;50.360;7.582;2023-03-29T08:04:21;9.00;99.90
21678;DHT22;11000;50.360;7.582;2023-03-29T08:06:42;9.10;99.90
21678;DHT22;11000;50.360;7.582;2023-03-29T08:09:02;9.20;99.90
21678;DHT22;11000;50.360;7.582;2023-03-29T08:11:23;9.40;99.90
21678;DHT22;11000;50.360;7.582;2023-03-29T08:13:44;9.50;99.90
21678;DHT22;11000;50.360;7.582;2023-03-29T08:16:04;9.50;99.90
21678;DHT22;11000;50.360;7.582;2023-03-29T08:18:25;9.60;99.90
21678;DHT22;11000;50.360;7.582;2023-03-29T08:20:46;9.70;99.90
21678;DHT22;11000;50.360;7.582;2023-03-29T08:23:07;9.80;99.90
21678;DHT22;11000;50.360;7.582;2023-03-29T08:25:27;9.80;99.90
21678;DHT22;11000;50.360;7.582;2023-03-29T08:27:48;9.80;99.90
21678;DHT22;11000;50.360;7.582;2023-03-29T08:30:09;9.90;99.90
21678;DHT22;11000;50.360;7.582;2023-03-29T08:32:29;10.00;99.90
21678;DHT22;11000;50.360;7.582;2023-03-29T08:34:51;10.20;99.90
21678;DHT22;11000;50.360;7.582;2023-03-29T08:37:11;10.40;99.90
21678;DHT22;11000;50.360;7.582;2023-03-29T08:39:32;10.40;99.90
21678;DHT22;11000;50.360;7.582;2023-03-29T08:44:48;10.30;99.90
21678;DHT22;11000;50.360;7.582;2023-03-29T08:49:47;10.40;99.90
21678;DHT22;11000;50.360;7.582;2023-03-29T08:52:29;10.40;99.90
21678;DHT22;11000;50.360;7.582;2023-03-29T08:54:52;10.40;99.90
21678;DHT22;11000;50.360;7.582;2023-03-29T08:57:20;10.50;99.90
21678;DHT22;11000;50.360;7.582;2023-03-29T08:59:43;10.60;99.90
21678;DHT22;11000;50.360;7.582;2023-03-29T09:02:11;10.70;99.90
21678;DHT22;11000;50.360;7.582;2023-03-29T09:04:34;10.80;99.90
21678;DHT22;11000;50.360;7.582;2023-03-29T09:06:55;11.00;99.90
21678;DHT22;11000;50.360;7.582;2023-03-29T09:09:20;11.10;99.90
21678;DHT22;11000;50.360;7.582;2023-03-29T09:14:42;11.00;99.90
21678;DHT22;11000;50.360;7.582;2023-03-29T09:22:30;10.80;99.90
21678;DHT22;11000;50.360;7.582;2023-03-29T09:27:34;11.00;99.90
21678;DHT22;11000;50.360;7.582;2023-03-29T09:32:36;11.00;99.90
21678;DHT22;11000;50.360;7.582;2023-03-29T09:35:08;11.00;99.90
21678;DHT22;11000;50.360;7.582;2023-03-29T09:37:35;11.10;99.90
21678;DHT22;11000;50.360;7.582;2023-03-29T09:39:58;11.10;99.90
21678;DHT22;11000;50.360;7.582;2023-03-29T09:42:19;11.20;99.90
21678;DHT22;11000;50.360;7.582;2023-03-29T09:44:44;11.30;99.90
21678;DHT22;11000;50.360;7.582;2023-03-29T09:47:11;11.40;99.90
21678;DHT22;11000;50.360;7.582;2023-03-29T09:49:40;11.40;99.90
21678;DHT22;11000;50.360;7.582;2023-03-29T09:52:11;11.40;99.90
21678;DHT22;11000;50.360;7.582;2023-03-29T09:54:32;11.50;99.90
21678;DHT22;11000;50.360;7.582;2023-03-29T09:56:53;11.60;99.90
21678;DHT22;11000;50.360;7.582;2023-03-29T09:59:14;11.70;99.90
21678;DHT22;11000;50.360;7.582;2023-03-29T10:01:40;11.90;99.90
21678;DHT22;11000;50.360;7.582;2023-03-29T10:04:01;11.90;99.90
21678;DHT22;11000;50.360;7.582;2023-03-29T10:06:25;11.90;99.90
21678;DHT22;11000;50.360;7.582;2023-03-29T10:11:21;12.00;99.90
21678;DHT22;11000;50.360;7.582;2023-03-29T10:13:46;11.90;99.90
21678;DHT22;11000;50.360;7.582;2023-03-29T10:16:23;11.90;99.90
21678;DHT22;11000;50.360;7.582;2023-03-29T10:18:43;11.70;99.90
21678;DHT22;11000;50.360;7.582;2023-03-29T10:21:04;11.70;99.90
21678;DHT22;11000;50.360;7.582;2023-03-29T10:23:33;11.80;99.90
21678;DHT22;11000;50.360;7.582;2023-03-29T10:25:53;11.80;99.90
21678;DHT22;11000;50.360;7.582;2023-03-29T10:28:16;11.90;99.90
21678;DHT22;11000;50.360;7.582;2023-03-29T10:30:38;12.00;99.90
21678;DHT22;11000;50.360;7.582;2023-03-29T10:32:59;12.10;99.90
21678;DHT22;11000;50.360;7.582;2023-03-29T10:35:23;12.20;99.90
21678;DHT22;11000;50.360;7.582;2023-03-29T10:37:49;12.40;99.90
21678;DHT22;11000;50.360;7.582;2023-03-29T10:40:32;12.70;99.90
21678;DHT22;11000;50.360;7.582;2023-03-29T10:42:58;13.00;99.90
21678;DHT22;11000;50.360;7.582;2023-03-29T10:45:28;13.20;99.90
21678;DHT22;11000;50.360;7.582;2023-03-29T10:47:48;13.30;99.90
21678;DHT22;11000;50.360;7.582;2023-03-29T10:50:14;13.40;99.90
21678;DHT22;11000;50.360;7.582;2023-03-29T10:52:35;13.50;99.90
21678;DHT22;11000;50.360;7.582;2023-03-29T10:54:55;13.60;99.90
21678;DHT22;11000;50.360;7.582;2023-03-29T10:57:27;13.80;99.90
21678;DHT22;11000;50.360;7.582;2023-03-29T11:02:46;14.00;99.90
21678;DHT22;11000;50.360;7.582;2023-03-29T11:05:21;14.00;99.90
21678;DHT22;11000;50.360;7.582;2023-03-29T11:13:10;14.00;99.90
21678;DHT22;11000;50.360;7.582;2023-03-29T11:18:29;14.20;99.90
21678;DHT22;11000;50.360;7.582;2023-03-29T11:26:13;14.40;99.90
21678;DHT22;11000;50.360;7.582;2023-03-29T11:34:02;14.60;99.90
21678;DHT22;11000;50.360;7.582;2023-03-29T11:41:24;14.90;99.90
21678;DHT22;11000;50.360;7.582;2023-03-29T11:43:55;14.90;99.90
21678;DHT22;11000;50.360;7.582;2023-03-29T11:46:30;15.00;99.90
21678;DHT22;11000;50.360;7.582;2023-03-29T11:51:25;15.20;99.90
21678;DHT22;11000;50.360;7.582;2023-03-29T11:53:58;15.40;99.90
21678;DHT22;11000;50.360;7.582;2023-03-29T11:56:25;15.60;99.90
21678;DHT22;11000;50.360;7.582;2023-03-29T11:58:52;15.60;99.90
21678;DHT22;11000;50.360;7.582;2023-03-29T12:01:18;15.80;99.90
21678;DHT22;11000;50.360;7.582;2023-03-29T12:03:56;15.70;99.90
21678;DHT22;11000;50.360;7.582;2023-03-29T12:06:40;15.70;99.90
21678;DHT22;11000;50.360;7.582;2023-03-29T12:11:47;16.10;99.90
21678;DHT22;11000;50.360;7.582;2023-03-29T12:14:14;16.30;99.90
21678;DHT22;11000;50.360;7.582;2023-03-29T12:16:42;16.20;99.90
21678;DHT22;11000;50.360;7.582;2023-03-29T12:19:34;16.50;99.90
21678;DHT22;11000;50.360;7.582;2023-03-29T12:21:56;16.90;99.90
21678;DHT22;11000;50.360;7.582;2023-03-29T12:24:18;17.20;99.90
21678;DHT22;11000;50.360;7.582;2023-03-29T12:27:26;17.20;99.90
21678;DHT22;11000;50.360;7.582;2023-03-29T12:32:30;17.30;99.90
21678;DHT22;11000;50.360;7.582;2023-03-29T12:35:14;17.40;99.90
21678;DHT22;11000;50.360;7.582;2023-03-29T12:37:59;17.40;99.90
21678;DHT22;11000;50.360;7.582;2023-03-29T12:40:24;17.60;99.90
21678;DHT22;11000;50.360;7.582;2023-03-29T12:42:51;17.70;99.90
21678;DHT22;11000;50.360;7.582;2023-03-29T12:45:27;17.70;99.90
21678;DHT22;11000;50.360;7.582;2023-03-29T12:47:49;17.60;99.90
21678;DHT22;11000;50.360;7.582;2023-03-29T12:50:23;17.50;99.90
21678;DHT22;11000;50.360;7.582;2023-03-29T12:52:45;17.20;99.90
21678;DHT22;11000;50.360;7.582;2023-03-29T12:57:55;17.00;99.90
21678;DHT22;11000;50.360;7.582;2023-03-29T13:00:21;17.10;99.90
21678;DHT22;11000;50.360;7.582;2023-03-29T13:03:01;17.10;99.90
21678;DHT22;11000;50.360;7.582;2023-03-29T13:05:28;17.10;99.90
21678;DHT22;11000;50.360;7.582;2023-03-29T13:07:49;17.10;99.90
21678;DHT22;11000;50.360;7.582;2023-03-29T13:10:51;17.10;99.90
21678;DHT22;11000;50.360;7.582;2023-03-29T13:13:24;17.00;99.90
21678;DHT22;11000;50.360;7.582;2023-03-29T13:15:46;17.10;99.90
21678;DHT22;11000;50.360;7.582;2023-03-29T13:18:29;17.30;99.90
21678;DHT22;11000;50.360;7.582;2023-03-29T13:21:04;17.60;99.90
21678;DHT22;11000;50.360;7.582;2023-03-29T13:27:00;17.80;99.90
21678;DHT22;11000;50.360;7.582;2023-03-29T13:29:51;17.80;99.90
21678;DHT22;11000;50.360;7.582;2023-03-29T13:39:53;18.00;99.90
21678;DHT22;11000;50.360;7.582;2023-03-29T13:42:38;18.20;99.90
21678;DHT22;11000;50.360;7.582;2023-03-29T13:45:27;18.30;99.90
21678;DHT22;11000;50.360;7.582;2023-03-29T13:47:48;18.40;99.90
21678;DHT22;11000;50.360;7.582;2023-03-29T13:50:19;18.20;99.90
21678;DHT22;11000;50.360;7.582;2023-03-29T13:52:44;18.20;99.90
21678;DHT22;11000;50.360;7.582;2023-03-29T13:55:25;18.30;99.90
21678;DHT22;11000;50.360;7.582;2023-03-29T13:58:08;18.10;99.90
21678;DHT22;11000;50.360;7.582;2023-03-29T14:00:33;18.00;99.90
21678;DHT22;11000;50.360;7.582;2023-03-29T14:02:59;17.70;99.90
21678;DHT22;11000;50.360;7.582;2023-03-29T14:05:30;17.40;99.90
21678;DHT22;11000;50.360;7.582;2023-03-29T14:07:52;17.20;99.90
21678;DHT22;11000;50.360;7.582;2023-03-29T14:10:16;17.20;99.90
21678;DHT22;11000;50.360;7.582;2023-03-29T14:12:37;17.20;99.90
21678;DHT22;11000;50.360;7.582;2023-03-29T14:15:00;17.20;99.90
21678;DHT22;11000;50.360;7.582;2023-03-29T14:17:21;17.10;99.90
21678;DHT22;11000;50.360;7.582;2023-03-29T14:19:44;17.00;99.90
21678;DHT22;11000;50.360;7.582;2023-03-29T14:22:13;16.90;99.90
21678;DHT22;11000;50.360;7.582;2023-03-29T14:24:37;16.90;99.90
21678;DHT22;11000;50.360;7.582;2023-03-29T14:27:01;17.00;99.90
21678;DHT22;11000;50.360;7.582;2023-03-29T14:29:29;16.90;99.90
21678;DHT22;11000;50.360;7.582;2023-03-29T14:31:50;17.00;99.90
21678;DHT22;11000;50.360;7.582;2023-03-29T14:34:16;17.00;99.90
21678;DHT22;11000;50.360;7.582;2023-03-29T14:36:38;17.10;99.90
21678;DHT22;11000;50.360;7.582;2023-03-29T14:39:09;17.10;99.90
21678;DHT22;11000;50.360;7.582;2023-03-29T14:41:33;17.10;99.90
21678;DHT22;11000;50.360;7.582;2023-03-29T14:43:55;17.00;99.90
21678;DHT22;11000;50.360;7.582;2023-03-29T14:46:19;17.10;99.90
21678;DHT22;11000;50.360;7.582;2023-03-29T14:48:40;17.00;99.90
21678;DHT22;11000;50.360;7.582;2023-03-29T14:51:02;17.00;99.90
21678;DHT22;11000;50.360;7.582;2023-03-29T14:53:24;17.10;99.90
21678;DHT22;11000;50.360;7.582;2023-03-29T14:55:47;17.00;99.90
21678;DHT22;11000;50.360;7.582;2023-03-29T14:58:23;16.90;99.90
21678;DHT22;11000;50.360;7.582;2023-03-29T15:00:49;16.90;99.90
21678;DHT22;11000;50.360;7.582;2023-03-29T15:03:14;16.90;99.90
21678;DHT22;11000;50.360;7.582;2023-03-29T15:05:40;16.80;99.90
21678;DHT22;11000;50.360;7.582;2023-03-29T15:08:02;16.80;99.90
21678;DHT22;11000;50.360;7.582;2023-03-29T15:10:23;16.80;99.90
21678;DHT22;11000;50.360;7.582;2023-03-29T15:12:45;16.80;99.90
21678;DHT22;11000;50.360;7.582;2023-03-29T15:15:08;16.90;99.90
21678;DHT22;11000;50.360;7.582;2023-03-29T15:17:34;16.90;99.90
21678;DHT22;11000;50.360;7.582;2023-03-29T15:20:03;16.90;99.90
21678;DHT22;11000;50.360;7.582;2023-03-29T15:22:33;16.90;99.90
21678;DHT22;11000;50.360;7.582;2023-03-29T15:24:57;16.90;99.90
21678;DHT22;11000;50.360;7.582;2023-03-29T15:27:18;16.90;99.90
21678;DHT22;11000;50.360;7.582;2023-03-29T15:29:42;17.00;99.90
21678;DHT22;11000;50.360;7.582;2023-03-29T15:32:03;17.00;99.90
21678;DHT22;11000;50.360;7.582;2023-03-29T15:34:28;17.00;99.90
21678;DHT22;11000;50.360;7.582;2023-03-29T15:36:49;17.10;99.90
21678;DHT22;11000;50.360;7.582;2023-03-29T15:39:15;17.10;99.90
21678;DHT22;11000;50.360;7.582;2023-03-29T15:41:36;17.10;99.90
21678;DHT22;11000;50.360;7.582;2023-03-29T15:43:56;17.30;99.90
21678;DHT22;11000;50.360;7.582;2023-03-29T15:46:17;17.30;99.90
21678;DHT22;11000;50.360;7.582;2023-03-29T15:48:38;17.30;99.90
21678;DHT22;11000;50.360;7.582;2023-03-29T15:50:58;17.40;99.90
21678;DHT22;11000;50.360;7.582;2023-03-29T15:53:20;17.50;99.90
21678;DHT22;11000;50.360;7.582;2023-03-29T15:55:48;17.30;99.90
21678;DHT22;11000;50.360;7.582;2023-03-29T15:58:13;17.20;99.90
21678;DHT22;11000;50.360;7.582;2023-03-29T16:00:35;17.20;99.90
21678;DHT22;11000;50.360;7.582;2023-03-29T16:02:59;17.30;99.90
21678;DHT22;11000;50.360;7.582;2023-03-29T16:05:20;17.20;99.90
21678;DHT22;11000;50.360;7.582;2023-03-29T16:07:41;17.10;99.90
21678;DHT22;11000;50.360;7.582;2023-03-29T16:10:01;17.00;99.90
21678;DHT22;11000;50.360;7.582;2023-03-29T16:12:22;16.90;99.90
21678;DHT22;11000;50.360;7.582;2023-03-29T16:14:43;16.90;99.90
21678;DHT22;11000;50.360;7.582;2023-03-29T16:17:04;16.80;99.90
21678;DHT22;11000;50.360;7.582;2023-03-29T16:19:26;16.70;99.90
21678;DHT22;11000;50.360;7.582;2023-03-29T16:21:46;16.70;99.90
21678;DHT22;11000;50.360;7.582;2023-03-29T16:24:17;16.50;99.90
21678;DHT22;11000;50.360;7.582;2023-03-29T16:26:38;16.40;99.90
21678;DHT22;11000;50.360;7.582;2023-03-29T16:28:59;16.40;99.90
21678;DHT22;11000;50.360;7.582;2023-03-29T16:31:20;16.40;99.90
21678;DHT22;11000;50.360;7.582;2023-03-29T16:33:42;16.20;99.90
21678;DHT22;11000;50.360;7.582;2023-03-29T16:36:03;16.20;99.90
21678;DHT22;11000;50.360;7.582;2023-03-29T16:38:24;16.20;99.90
21678;DHT22;11000;50.360;7.582;2023-03-29T16:40:45;16.20;99.90
21678;DHT22;11000;50.360;7.582;2023-03-29T16:43:05;16.20;99.90
21678;DHT22;11000;50.360;7.582;2023-03-29T16:45:27;16.20;99.90